createdAt,value
2018-12-29T00:01:00.293Z,101344.58
2018-12-29T00:04:04.665Z,101340.38
2018-12-29T00:07:09.052Z,101347.28
2018-12-29T00:10:13.461Z,101352.39
2018-12-29T00:13:17.919Z,101356.91
2018-12-29T00:16:22.322Z,101356.69
2018-12-29T00:19:26.680Z,101356.29
2018-12-29T00:22:31.081Z,101367.58
2018-12-29T00:25:35.400Z,101374.44
2018-12-29T00:28:39.768Z,101388.61
2018-12-29T00:31:44.107Z,101388.80
2018-12-29T00:34:48.386Z,101379.42
2018-12-29T00:37:52.782Z,101377.70
2018-12-29T00:40:57.177Z,101382.59
2018-12-29T00:44:01.563Z,101391.98
2018-12-29T00:47:05.963Z,101397.25
2018-12-29T00:50:10.503Z,101395.17
2018-12-29T00:53:14.897Z,101380.50
2018-12-29T00:56:19.287Z,101374.80
2018-12-29T00:59:23.639Z,101373.83
2018-12-29T01:02:27.981Z,101377.33
2018-12-29T01:05:32.361Z,101365.03
2018-12-29T01:08:36.937Z,101358.77
2018-12-29T01:11:41.304Z,101366.89
2018-12-29T01:14:45.698Z,101361.94
2018-12-29T01:17:50.030Z,101361.05
2018-12-29T01:20:54.407Z,101350.55
2018-12-29T01:23:58.792Z,101362.25
2018-12-29T01:27:03.152Z,101363.48
2018-12-29T01:30:08.064Z,101368.21
2018-12-29T01:33:12.403Z,101373.83
2018-12-29T01:36:16.780Z,101379.88
2018-12-29T01:39:21.218Z,101374.05
2018-12-29T01:42:25.582Z,101368.53
2018-12-29T01:45:29.911Z,101366.63
2018-12-29T01:48:34.189Z,101371.70
2018-12-29T01:51:38.576Z,101372.67
2018-12-29T01:54:42.855Z,101368.05
2018-12-29T01:57:47.193Z,101362.61
2018-12-29T02:00:51.514Z,101352.80
2018-12-29T02:03:55.844Z,101348.64
2018-12-29T02:07:00.236Z,101340.23
2018-12-29T02:10:04.692Z,101347.61
2018-12-29T02:13:08.990Z,101346.55
2018-12-29T02:16:13.323Z,101328.92
2018-12-29T02:19:17.677Z,101334.39
2018-12-29T02:22:22.111Z,101331.25
2018-12-29T02:25:26.498Z,101340.31
2018-12-29T02:28:30.822Z,101340.62
2018-12-29T02:31:35.212Z,101337.52
2018-12-29T02:34:39.524Z,101328.11
2018-12-29T02:37:44.000Z,101329.21
2018-12-29T02:40:48.315Z,101329.41
2018-12-29T02:43:52.799Z,101331.96
2018-12-29T02:46:57.185Z,101330.34
2018-12-29T02:50:01.571Z,101332.89
2018-12-29T02:53:09.504Z,101344.34
2018-12-29T02:56:13.882Z,101342.37
2018-12-29T02:59:18.239Z,101342.92
2018-12-29T03:02:22.612Z,101351.27
2018-12-29T03:05:27.066Z,101342.51
2018-12-29T03:08:31.517Z,101333.42
2018-12-29T03:11:35.905Z,101320.77
2018-12-29T03:14:40.264Z,101308.22
2018-12-29T03:17:44.611Z,101319.77
2018-12-29T03:20:48.957Z,101312.95
2018-12-29T03:23:53.303Z,101303.82
2018-12-29T03:26:57.620Z,101311.13
2018-12-29T03:30:01.931Z,101321.77
2018-12-29T03:33:06.274Z,101313.11
2018-12-29T03:36:10.524Z,101311.91
2018-12-29T03:39:14.869Z,101316.98
2018-12-29T03:42:19.252Z,101316.33
2018-12-29T03:45:23.663Z,101307.86
2018-12-29T03:48:28.018Z,101302.42
2018-12-29T03:51:32.355Z,101284.77
2018-12-29T03:54:36.722Z,101287.80
2018-12-29T03:57:40.990Z,101285.28
2018-12-29T04:00:45.328Z,101287.67
2018-12-29T04:03:49.708Z,101279.41
2018-12-29T04:06:54.007Z,101286.47
2018-12-29T04:09:58.349Z,101272.62
2018-12-29T04:13:02.983Z,101278.67
2018-12-29T04:16:07.385Z,101279.05
2018-12-29T04:19:11.802Z,101278.67
2018-12-29T04:22:16.178Z,101287.57
2018-12-29T04:25:24.502Z,101287.38
2018-12-29T04:28:28.813Z,101292.78
2018-12-29T04:31:33.495Z,101296.41
2018-12-29T04:34:37.830Z,101295.45
2018-12-29T04:37:42.209Z,101295.61
2018-12-29T04:40:46.596Z,101302.25
2018-12-29T04:43:50.900Z,101303.55
2018-12-29T04:46:55.301Z,101306.09
2018-12-29T04:49:59.621Z,101309.56
2018-12-29T04:53:03.931Z,101303.58
2018-12-29T04:56:08.326Z,101309.59
2018-12-29T04:59:12.665Z,101312.86
2018-12-29T05:02:17.040Z,101318.17
2018-12-29T05:05:21.450Z,101324.11
2018-12-29T05:08:25.791Z,101322.50
2018-12-29T05:11:30.477Z,101319.39
2018-12-29T05:14:34.814Z,101325.20
2018-12-29T05:17:39.135Z,101327.81
2018-12-29T05:20:43.531Z,101335.77
2018-12-29T05:23:47.884Z,101336.00
2018-12-29T05:26:52.269Z,101334.45
2018-12-29T05:29:56.708Z,101324.59
2018-12-29T05:33:01.005Z,101339.42
2018-12-29T05:36:05.370Z,101332.63
2018-12-29T05:39:09.731Z,101331.69
2018-12-29T05:42:14.041Z,101336.28
2018-12-29T05:45:18.423Z,101342.41
2018-12-29T05:48:22.748Z,101341.56
2018-12-29T05:51:27.045Z,101344.83
2018-12-29T05:54:31.670Z,101336.87
2018-12-29T05:57:36.157Z,101344.98
2018-12-29T06:00:40.531Z,101342.79
2018-12-29T06:03:44.892Z,101344.59
2018-12-29T06:06:49.261Z,101341.11
2018-12-29T06:09:53.619Z,101340.27
2018-12-29T06:12:58.024Z,101335.70
2018-12-29T06:16:02.351Z,101335.36
2018-12-29T06:19:06.698Z,101333.86
2018-12-29T06:22:11.074Z,101333.24
2018-12-29T06:25:15.421Z,101335.28
2018-12-29T06:28:19.748Z,101338.68
2018-12-29T06:31:24.135Z,101333.24
2018-12-29T06:34:28.491Z,101335.23
2018-12-29T06:37:32.872Z,101338.48
2018-12-29T06:40:37.112Z,101332.43
2018-12-29T06:43:41.464Z,101344.70
2018-12-29T06:46:45.794Z,101347.81
2018-12-29T06:49:50.160Z,101347.86
2018-12-29T06:52:54.527Z,101343.86
2018-12-29T06:55:58.820Z,101347.28
2018-12-29T06:59:03.219Z,101350.91
2018-12-29T07:02:07.627Z,101343.53
2018-12-29T07:05:11.968Z,101356.37
2018-12-29T07:08:16.286Z,101350.94
2018-12-29T07:11:20.682Z,101350.19
2018-12-29T07:14:25.082Z,101354.84
2018-12-29T07:17:29.540Z,101346.26
2018-12-29T07:20:33.812Z,101358.59
2018-12-29T07:23:38.129Z,101365.23
2018-12-29T07:26:42.549Z,101363.90
2018-12-29T07:29:46.922Z,101365.77
2018-12-29T07:32:51.191Z,101374.64
2018-12-29T07:35:55.571Z,101375.66
2018-12-29T07:39:01.908Z,101373.32
2018-12-29T07:42:05.940Z,101382.13
2018-12-29T07:45:10.308Z,101381.02
2018-12-29T07:48:14.670Z,101375.92
2018-12-29T07:51:19.118Z,101391.11
2018-12-29T07:54:23.474Z,101388.53
2018-12-29T07:57:27.775Z,101388.14
2018-12-29T08:00:32.489Z,101390.20
2018-12-29T08:03:37.289Z,101394.73
2018-12-29T08:06:41.579Z,101394.84
2018-12-29T08:09:46.083Z,101402.30
2018-12-29T08:12:50.455Z,101393.75
2018-12-29T08:15:54.857Z,101403.06
2018-12-29T08:18:59.189Z,101400.51
2018-12-29T08:22:03.695Z,101397.52
2018-12-29T08:25:08.078Z,101393.19
2018-12-29T08:28:12.575Z,101406.27
2018-12-29T08:31:17.404Z,101403.08
2018-12-29T08:34:21.781Z,101409.37
2018-12-29T08:37:26.149Z,101403.55
2018-12-29T08:40:30.553Z,101401.88
2018-12-29T08:43:34.892Z,101399.33
2018-12-29T08:46:39.276Z,101402.16
2018-12-29T08:49:43.969Z,101400.09
2018-12-29T08:52:48.314Z,101401.92
2018-12-29T08:55:55.661Z,101394.05
2018-12-29T08:59:00.058Z,101392.52
2018-12-29T09:02:04.618Z,101398.20
2018-12-29T09:05:09.017Z,101403.39
2018-12-29T09:08:13.499Z,101396.91
2018-12-29T09:11:17.858Z,101403.16
2018-12-29T09:14:22.290Z,101398.96
2018-12-29T09:17:28.374Z,101400.29
2018-12-29T09:20:32.945Z,101407.53
2018-12-29T09:23:37.323Z,101410.30
2018-12-29T09:26:41.753Z,101413.36
2018-12-29T09:29:46.389Z,101416.27
2018-12-29T09:32:50.777Z,101416.52
2018-12-29T09:35:56.327Z,101418.78
2018-12-29T09:39:01.021Z,101408.52
2018-12-29T09:42:05.812Z,101406.47
2018-12-29T09:45:10.201Z,101394.75
2018-12-29T09:48:14.559Z,101380.23
2018-12-29T09:51:18.879Z,101374.08
2018-12-29T09:54:30.081Z,101387.57
2018-12-29T09:57:34.387Z,101397.97
2018-12-29T10:00:39.200Z,101393.39
2018-12-29T10:03:43.608Z,101391.20
2018-12-29T10:06:48.007Z,101398.02
2018-12-29T10:09:52.501Z,101395.59
2018-12-29T10:12:56.849Z,101377.44
2018-12-29T10:16:01.277Z,101383.38
2018-12-29T10:19:05.790Z,101381.77
2018-12-29T10:22:10.101Z,101376.74
2018-12-29T10:25:14.693Z,101370.62
2018-12-29T10:28:19.270Z,101361.21
2018-12-29T10:31:23.610Z,101368.63
2018-12-29T10:34:28.049Z,101362.84
2018-12-29T10:37:32.325Z,101361.51
2018-12-29T10:40:36.787Z,101361.34
2018-12-29T10:43:41.153Z,101359.34
2018-12-29T10:46:45.618Z,101368.38
2018-12-29T10:49:50.215Z,101364.84
2018-12-29T10:52:54.691Z,101364.08
2018-12-29T10:55:59.105Z,101367.23
2018-12-29T10:59:03.672Z,101353.31
2018-12-29T11:02:08.174Z,101357.57
2018-12-29T11:05:12.630Z,101359.66
2018-12-29T11:08:17.088Z,101362.11
2018-12-29T11:11:21.538Z,101358.84
2018-12-29T11:14:26.435Z,101350.24
2018-12-29T11:17:30.803Z,101337.41
2018-12-29T11:20:35.272Z,101333.20
2018-12-29T11:23:40.232Z,101323.47
2018-12-29T11:26:44.868Z,101315.54
2018-12-29T11:29:49.332Z,101308.12
2018-12-29T11:32:54.100Z,101308.20
2018-12-29T11:35:58.512Z,101302.13
2018-12-29T11:39:03.718Z,101293.91
2018-12-29T11:42:08.110Z,101290.21
2018-12-29T11:45:12.513Z,101283.14
2018-12-29T11:48:16.999Z,101283.03
2018-12-29T11:51:21.364Z,101277.46
2018-12-29T11:54:25.775Z,101267.81
2018-12-29T11:57:30.328Z,101273.15
2018-12-29T12:00:34.736Z,101264.64
2018-12-29T12:03:39.158Z,101264.22
2018-12-29T12:06:43.496Z,101251.52
2018-12-29T12:09:48.239Z,101243.05
2018-12-29T12:12:52.562Z,101245.68
2018-12-29T12:15:56.962Z,101239.16
2018-12-29T12:19:01.335Z,101237.01
2018-12-29T12:22:05.707Z,101234.48
2018-12-29T12:25:10.111Z,101217.55
2018-12-29T12:28:14.502Z,101219.54
2018-12-29T12:31:18.992Z,101213.83
2018-12-29T12:34:23.338Z,101213.02
2018-12-29T12:37:27.759Z,101207.16
2018-12-29T12:40:32.404Z,101205.61
2018-12-29T12:43:36.874Z,101207.51
2018-12-29T12:46:41.755Z,101205.42
2018-12-29T12:49:46.493Z,101206.73
2018-12-29T12:52:50.902Z,101205.72
2018-12-29T12:55:55.239Z,101220.30
2018-12-29T12:58:59.982Z,101226.34
2018-12-29T13:02:04.563Z,101229.84
2018-12-29T13:05:08.970Z,101212.52
2018-12-29T13:08:13.404Z,101214.70
2018-12-29T13:11:17.770Z,101199.70
2018-12-29T13:14:22.223Z,101191.41
2018-12-29T13:17:26.683Z,101197.55
2018-12-29T13:20:31.103Z,101197.72
2018-12-29T13:23:35.511Z,101194.59
2018-12-29T13:26:40.408Z,101188.22
2018-12-29T13:29:44.803Z,101183.61
2018-12-29T13:32:49.201Z,101179.66
2018-12-29T13:35:53.702Z,101179.33
2018-12-29T13:38:58.047Z,101165.37
2018-12-29T13:42:02.448Z,101171.89
2018-12-29T13:45:06.883Z,101177.48
2018-12-29T13:48:11.251Z,101185.05
2018-12-29T13:51:15.930Z,101183.21
2018-12-29T13:54:23.470Z,101202.36
2018-12-29T13:57:30.877Z,101208.86
2018-12-29T14:00:35.157Z,101213.58
2018-12-29T14:03:39.695Z,101214.70
2018-12-29T14:06:44.194Z,101227.84
2018-12-29T14:09:48.670Z,101232.81
2018-12-29T14:12:53.546Z,101224.86
2018-12-29T14:15:58.155Z,101222.54
2018-12-29T14:19:02.891Z,101225.31
2018-12-29T14:22:07.705Z,101223.70
2018-12-29T14:25:12.283Z,101197.31
2018-12-29T14:28:16.887Z,101184.88
2018-12-29T14:31:21.250Z,101176.37
2018-12-29T14:34:27.708Z,101203.55
2018-12-29T14:37:31.800Z,101180.22
2018-12-29T14:40:36.426Z,101198.16
2018-12-29T14:43:40.992Z,101184.10
2018-12-29T14:46:45.328Z,101159.72
2018-12-29T14:49:50.156Z,101158.77
2018-12-29T14:52:57.535Z,101163.81
2018-12-29T14:56:01.890Z,101153.03
2018-12-29T14:59:06.470Z,101164.94
2018-12-29T15:02:11.189Z,101154.70
2018-12-29T15:05:15.596Z,101148.93
2018-12-29T15:08:19.963Z,101134.01
2018-12-29T15:11:24.346Z,101123.81
2018-12-29T15:14:28.778Z,101121.64
2018-12-29T15:17:33.142Z,101126.54
2018-12-29T15:20:37.938Z,101124.93
2018-12-29T15:23:42.699Z,101142.64
2018-12-29T15:26:47.658Z,101152.72
2018-12-29T15:29:52.405Z,101150.14
2018-12-29T15:32:56.800Z,101148.99
2018-12-29T15:36:01.317Z,101145.73
2018-12-29T15:39:07.790Z,101142.70
2018-12-29T15:42:12.352Z,101147.22
2018-12-29T15:45:16.759Z,101136.77
2018-12-29T15:48:21.151Z,101140.19
2018-12-29T15:51:25.451Z,101148.25
2018-12-29T15:54:32.284Z,101165.27
2018-12-29T15:57:36.683Z,101154.70
2018-12-29T16:00:41.132Z,101157.39
2018-12-29T16:03:45.645Z,101154.73
2018-12-29T16:06:50.100Z,101145.70
2018-12-29T16:09:54.743Z,101139.06
2018-12-29T16:12:59.432Z,101124.71
2018-12-29T16:16:03.935Z,101108.55
2018-12-29T16:19:08.384Z,101107.84
2018-12-29T16:22:12.845Z,101108.41
2018-12-29T16:25:17.302Z,101126.02
2018-12-29T16:28:21.675Z,101119.00
2018-12-29T16:31:26.084Z,101115.06
2018-12-29T16:34:30.506Z,101097.70
2018-12-29T16:37:34.932Z,101078.11
2018-12-29T16:40:39.440Z,101066.73
2018-12-29T16:43:44.005Z,101073.59
2018-12-29T16:46:48.342Z,101076.16
2018-12-29T16:49:52.803Z,101076.00
2018-12-29T16:52:57.527Z,101067.63
2018-12-29T16:56:02.045Z,101069.27
2018-12-29T16:59:06.591Z,101067.50
2018-12-29T17:02:11.086Z,101062.83
2018-12-29T17:05:15.548Z,101043.58
2018-12-29T17:08:20.025Z,101028.36
2018-12-29T17:11:24.661Z,101021.75
2018-12-29T17:14:29.276Z,101015.66
2018-12-29T17:17:33.648Z,100999.86
2018-12-29T17:20:38.070Z,100997.41
2018-12-29T17:23:42.508Z,101004.00
2018-12-29T17:26:46.955Z,100994.53
2018-12-29T17:29:51.495Z,100988.20
2018-12-29T17:32:57.100Z,100970.02
2018-12-29T17:36:01.938Z,100984.98
2018-12-29T17:39:07.869Z,100985.19
2018-12-29T17:42:12.540Z,100995.11
2018-12-29T17:45:17.016Z,100968.69
2018-12-29T17:48:21.398Z,100966.68
2018-12-29T17:51:25.801Z,100954.66
2018-12-29T17:54:30.441Z,100969.58
2018-12-29T17:57:34.846Z,100975.83
2018-12-29T18:00:39.422Z,100985.50
2018-12-29T18:03:44.198Z,100987.08
2018-12-29T18:06:48.655Z,100998.66
2018-12-29T18:09:57.101Z,101005.63
2018-12-29T18:12:59.362Z,101008.62
2018-12-29T18:16:04.013Z,101018.64
2018-12-29T18:19:08.467Z,101022.23
2018-12-29T18:22:12.863Z,100986.08
2018-12-29T18:25:17.486Z,100973.69
2018-12-29T18:28:22.306Z,100934.27
2018-12-29T18:31:26.701Z,100933.31
2018-12-29T18:34:31.135Z,100904.83
2018-12-29T18:37:35.511Z,100919.45
2018-12-29T18:40:40.146Z,100899.69
2018-12-29T18:43:44.697Z,100891.44
2018-12-29T18:46:49.075Z,100878.33
2018-12-29T18:49:53.422Z,100866.55
2018-12-29T18:52:58.128Z,100875.02
2018-12-29T18:56:02.495Z,100861.34
2018-12-29T18:59:06.878Z,100849.56
2018-12-29T19:02:11.266Z,100839.59
2018-12-29T19:05:16.027Z,100836.01
2018-12-29T19:08:20.726Z,100836.05
2018-12-29T19:11:27.349Z,100841.05
2018-12-29T19:14:31.697Z,100831.72
2018-12-29T19:17:36.166Z,100833.75
2018-12-29T19:20:40.786Z,100818.17
2018-12-29T19:23:45.740Z,100836.19
2018-12-29T19:26:50.503Z,100835.87
2018-12-29T19:29:54.980Z,100825.41
2018-12-29T19:32:59.490Z,100815.94
2018-12-29T19:36:10.306Z,100813.27
2018-12-29T19:39:14.774Z,100807.40
2018-12-29T19:42:19.208Z,100799.92
2018-12-29T19:45:23.534Z,100809.56
2018-12-29T19:48:28.433Z,100808.16
2018-12-29T19:51:33.275Z,100788.99
2018-12-29T19:54:37.659Z,100798.49
2018-12-29T19:57:42.338Z,100805.50
2018-12-29T20:00:46.724Z,100803.73
2018-12-29T20:03:51.555Z,100800.42
2018-12-29T20:06:55.926Z,100805.00
2018-12-29T20:10:00.361Z,100810.30
2018-12-29T20:13:04.790Z,100804.27
2018-12-29T20:16:09.144Z,100783.55
2018-12-29T20:19:13.512Z,100784.42
2018-12-29T20:22:17.965Z,100781.45
2018-12-29T20:25:22.245Z,100761.78
2018-12-29T20:28:26.748Z,100759.27
2018-12-29T20:31:31.095Z,100758.95
2018-12-29T20:34:36.092Z,100759.10
2018-12-29T20:37:40.688Z,100756.83
2018-12-29T20:40:45.549Z,100745.16
2018-12-29T20:43:50.047Z,100739.63
2018-12-29T20:46:54.568Z,100719.11
2018-12-29T20:49:58.999Z,100722.23
2018-12-29T20:53:03.422Z,100727.63
2018-12-29T20:56:07.772Z,100728.59
2018-12-29T20:59:12.072Z,100723.87
2018-12-29T21:02:16.461Z,100736.80
2018-12-29T21:05:20.903Z,100720.75
2018-12-29T21:08:25.242Z,100722.58
2018-12-29T21:11:29.723Z,100715.22
2018-12-29T21:14:34.197Z,100730.45
2018-12-29T21:17:38.629Z,100716.98
2018-12-29T21:20:43.061Z,100704.09
2018-12-29T21:23:47.449Z,100700.55
2018-12-29T21:26:51.821Z,100700.94
2018-12-29T21:29:56.260Z,100691.27
2018-12-29T21:33:00.823Z,100689.88
2018-12-29T21:36:05.226Z,100692.16
2018-12-29T21:39:09.701Z,100693.93
2018-12-29T21:42:14.134Z,100690.30
2018-12-29T21:45:18.547Z,100674.14
2018-12-29T21:48:23.015Z,100683.82
2018-12-29T21:51:27.349Z,100663.55
2018-12-29T21:54:31.739Z,100666.20
2018-12-29T21:57:36.150Z,100647.13
2018-12-29T22:00:40.457Z,100628.13
2018-12-29T22:03:45.269Z,100640.16
2018-12-29T22:06:50.674Z,100628.95
2018-12-29T22:09:55.122Z,100645.16
2018-12-29T22:12:59.536Z,100646.56
2018-12-29T22:16:03.948Z,100638.34
2018-12-29T22:19:08.393Z,100650.73
2018-12-29T22:22:12.691Z,100630.99
2018-12-29T22:25:17.436Z,100645.34
2018-12-29T22:28:21.785Z,100627.53
2018-12-29T22:31:26.129Z,100641.86
2018-12-29T22:34:30.571Z,100621.19
2018-12-29T22:37:34.939Z,100617.17
2018-12-29T22:40:39.326Z,100624.97
2018-12-29T22:43:43.707Z,100636.99
2018-12-29T22:46:48.091Z,100630.36
2018-12-29T22:49:52.599Z,100634.41
2018-12-29T22:52:57.003Z,100617.00
2018-12-29T22:56:01.328Z,100603.14
2018-12-29T22:59:05.655Z,100585.59
2018-12-29T23:02:10.148Z,100593.61
2018-12-29T23:05:14.452Z,100585.86
2018-12-29T23:08:18.933Z,100574.03
2018-12-29T23:11:23.349Z,100569.19
2018-12-29T23:14:27.643Z,100573.84
2018-12-29T23:17:32.438Z,100556.88
2018-12-29T23:20:36.792Z,100550.13
2018-12-29T23:23:41.214Z,100561.64
2018-12-29T23:26:45.663Z,100560.24
2018-12-29T23:29:50.321Z,100565.66
2018-12-29T23:32:54.657Z,100575.34
2018-12-29T23:35:59.117Z,100584.69
2018-12-29T23:39:03.924Z,100582.02
2018-12-29T23:42:08.274Z,100577.86
2018-12-29T23:45:12.665Z,100588.34
2018-12-29T23:48:17.273Z,100574.00
2018-12-29T23:51:21.631Z,100584.40
2018-12-29T23:54:26.071Z,100560.66
2018-12-29T23:57:30.937Z,100564.25
